Time;durP1;ratioP1;P1;durP2;ratioP2;P2;SDS_P1;SDS_P2;PMS_P1;PMS_P2;Temp;Humidity;BMP_temperature;BMP_pressure;BME280_temperature;BME280_humidity;BME280_pressure;Samples;Min_cycle;Max_cycle;Signal;HPM_P1;HPM_P2
2021/12/12 00:01:25;;;;;;;8.25;5.90;;;4.50;99.90;;;;;;5087871;28;20032;-80
2021/12/12 00:03:56;;;;;;;9.05;5.60;;;4.50;99.90;;;;;;5092730;28;20036;-80
2021/12/12 00:06:33;;;;;;;7.88;5.47;;;4.50;99.90;;;;;;5090029;28;20074;-80
2021/12/12 00:09:08;;;;;;;11.00;6.40;;;4.40;99.90;;;;;;5082864;28;20479;-80
2021/12/12 00:11:35;;;;;;;10.85;6.20;;;4.40;99.90;;;;;;5086807;28;20029;-79
2021/12/12 00:14:12;;;;;;;11.30;6.15;;;4.40;99.90;;;;;;5092311;28;20032;-81
2021/12/12 00:16:39;;;;;;;6.82;5.28;;;4.30;99.90;;;;;;5092000;28;20090;-80
2021/12/12 00:19:05;;;;;;;7.47;5.68;;;4.30;99.90;;;;;;5092965;28;20037;-80
2021/12/12 00:21:33;;;;;;;6.88;5.05;;;4.30;99.90;;;;;;5091581;28;20035;-80
2021/12/12 00:23:59;;;;;;;9.15;5.63;;;4.30;99.90;;;;;;5088347;28;20020;-79
2021/12/12 00:26:24;;;;;;;7.50;5.07;;;4.40;99.90;;;;;;5088899;28;20360;-80
2021/12/12 00:28:50;;;;;;;6.85;4.90;;;4.40;99.90;;;;;;5081496;28;20028;-80
2021/12/12 00:31:18;;;;;;;7.88;5.30;;;4.40;99.90;;;;;;5086312;28;20044;-79
2021/12/12 00:33:47;;;;;;;12.18;6.40;;;4.50;99.90;;;;;;5092575;28;20074;-80
2021/12/12 00:36:17;;;;;;;9.27;5.75;;;4.50;99.90;;;;;;5089394;28;20020;-80
2021/12/12 00:38:49;;;;;;;8.90;5.32;;;4.50;99.90;;;;;;5089966;28;20027;-79
2021/12/12 00:41:19;;;;;;;6.18;4.65;;;4.50;99.90;;;;;;5088177;28;20048;-80
2021/12/12 00:43:51;;;;;;;6.25;4.35;;;4.50;99.90;;;;;;5091771;28;20047;-80
2021/12/12 00:46:21;;;;;;;8.20;5.70;;;4.50;99.90;;;;;;5090293;28;20024;-79
2021/12/12 00:48:49;;;;;;;6.95;5.00;;;4.50;99.90;;;;;;5092089;28;20028;-80
2021/12/12 00:51:17;;;;;;;5.82;4.72;;;4.40;99.90;;;;;;5090731;28;20082;-80
2021/12/12 00:53:45;;;;;;;5.78;4.40;;;4.40;99.90;;;;;;5091619;28;20043;-81
2021/12/12 00:56:11;;;;;;;6.25;4.18;;;4.30;99.90;;;;;;5088704;28;20103;-80
2021/12/12 00:58:37;;;;;;;5.55;4.22;;;4.30;99.90;;;;;;5087709;28;20032;-80
2021/12/12 01:01:03;;;;;;;7.20;4.43;;;4.40;99.90;;;;;;5090846;28;20110;-80
2021/12/12 01:03:36;;;;;;;5.28;3.83;;;4.60;99.90;;;;;;5091964;28;20044;-80
2021/12/12 01:06:04;;;;;;;6.28;4.53;;;4.70;99.90;;;;;;5091201;28;20384;-80
2021/12/12 01:08:30;;;;;;;6.25;4.00;;;4.70;99.90;;;;;;5089999;28;20032;-80
2021/12/12 01:11:16;;;;;;;7.53;4.78;;;4.70;99.90;;;;;;5090905;28;20415;-80
2021/12/12 01:13:44;;;;;;;6.97;4.90;;;4.80;99.90;;;;;;5083854;28;20535;-81
2021/12/12 01:16:36;;;;;;;7.00;4.55;;;4.90;99.90;;;;;;5089875;28;20475;-80
2021/12/12 01:19:10;;;;;;;8.38;4.70;;;5.00;99.90;;;;;;5090142;28;20027;-80
2021/12/12 01:21:42;;;;;;;5.60;4.07;;;5.00;99.90;;;;;;5075668;28;20032;-80
2021/12/12 01:24:24;;;;;;;7.68;5.20;;;4.90;99.90;;;;;;5087982;28;20028;-79
2021/12/12 01:26:50;;;;;;;6.32;4.28;;;4.90;99.90;;;;;;5089983;28;20104;-80
2021/12/12 01:29:16;;;;;;;7.50;4.45;;;4.90;99.90;;;;;;5090732;28;20032;-80
2021/12/12 01:31:47;;;;;;;7.57;4.32;;;4.90;99.90;;;;;;5087664;28;20048;-80
2021/12/12 01:34:17;;;;;;;6.03;4.28;;;5.00;99.90;;;;;;5090862;28;20023;-80
2021/12/12 01:39:28;;;;;;;8.38;5.15;;;5.00;99.90;;;;;;5088639;28;20031;-79
2021/12/12 01:41:59;;;;;;;7.28;4.85;;;4.90;99.90;;;;;;5087923;28;20039;-80
2021/12/12 01:44:32;;;;;;;8.88;5.15;;;4.90;99.90;;;;;;5081211;28;20036;-81
2021/12/12 01:47:06;;;;;;;8.65;5.20;;;4.90;99.90;;;;;;5106616;28;20040;-80
2021/12/12 01:49:35;;;;;;;6.88;4.90;;;4.80;99.90;;;;;;5085245;28;20016;-81
2021/12/12 01:52:03;;;;;;;8.82;5.57;;;4.90;99.90;;;;;;5090143;28;20123;-80
2021/12/12 01:54:45;;;;;;;6.25;4.47;;;4.90;99.90;;;;;;5091148;28;20135;-80
2021/12/12 01:57:26;;;;;;;9.88;5.57;;;4.90;99.90;;;;;;5090940;28;20398;-80
2021/12/12 01:59:54;;;;;;;6.00;4.68;;;4.90;99.90;;;;;;5087589;28;20465;-81
2021/12/12 02:02:24;;;;;;;8.13;4.90;;;4.80;99.90;;;;;;5102596;28;20025;-82
2021/12/12 02:04:54;;;;;;;18.40;4.75;;;4.90;99.90;;;;;;5091019;28;20024;-82
2021/12/12 02:07:24;;;;;;;7.43;4.82;;;4.80;99.90;;;;;;5090483;28;20359;-81
2021/12/12 02:09:50;;;;;;;8.65;4.97;;;4.90;99.90;;;;;;5085306;28;20478;-81
2021/12/12 02:12:19;;;;;;;7.85;5.07;;;4.90;99.90;;;;;;5090688;28;20505;-81
2021/12/12 02:14:48;;;;;;;5.85;4.60;;;4.80;99.90;;;;;;5084590;28;20479;-83
2021/12/12 02:17:25;;;;;;;7.00;4.68;;;4.80;99.90;;;;;;5091596;28;20020;-81
2021/12/12 02:20:07;;;;;;;5.57;3.95;;;4.80;99.90;;;;;;5087512;28;20040;-80
2021/12/12 02:36:09;;;;;;;8.23;4.85;;;4.90;99.90;;;;;;5081395;28;20118;-80
2021/12/12 02:38:35;;;;;;;7.00;4.38;;;4.90;99.90;;;;;;5090423;28;20035;-80
2021/12/12 02:41:07;;;;;;;5.53;4.22;;;4.90;99.90;;;;;;5089056;28;20055;-80
2021/12/12 02:43:40;;;;;;;5.68;4.30;;;4.90;99.90;;;;;;5084364;28;20086;-81
2021/12/12 02:46:07;;;;;;;6.40;5.20;;;4.80;99.90;;;;;;5083934;28;20044;-82
2021/12/12 02:48:39;;;;;;;9.73;4.78;;;4.90;99.90;;;;;;5089781;28;20051;-80
2021/12/12 02:51:10;;;;;;;5.75;4.18;;;4.90;99.90;;;;;;5092178;28;20077;-81
2021/12/12 02:53:47;;;;;;;6.18;4.22;;;4.90;99.90;;;;;;5090139;28;20037;-82
2021/12/12 02:56:20;;;;;;;5.75;4.15;;;4.90;99.90;;;;;;5089910;28;20390;-81
2021/12/12 02:58:48;;;;;;;5.18;3.75;;;4.80;99.90;;;;;;5093990;28;20077;-81
2021/12/12 03:01:26;;;;;;;5.72;4.00;;;4.80;99.90;;;;;;5085378;28;20060;-81
2021/12/12 03:03:54;;;;;;;5.15;3.85;;;4.80;99.90;;;;;;5090481;28;20058;-81
2021/12/12 03:06:23;;;;;;;5.40;4.03;;;4.70;99.90;;;;;;5089733;28;20024;-81
2021/12/12 03:08:53;;;;;;;7.78;4.13;;;4.70;99.90;;;;;;5087517;28;20024;-81
2021/12/12 03:11:19;;;;;;;7.88;4.80;;;4.70;99.90;;;;;;5086628;28;20032;-81
2021/12/12 03:13:45;;;;;;;6.50;4.22;;;4.70;99.90;;;;;;5093944;28;20416;-82
2021/12/12 03:16:11;;;;;;;6.15;4.50;;;4.70;99.90;;;;;;5091815;28;20106;-81
2021/12/12 03:18:41;;;;;;;6.70;4.60;;;4.60;99.90;;;;;;5086822;28;20420;-81
2021/12/12 03:21:30;;;;;;;5.13;4.18;;;4.60;99.90;;;;;;5091448;28;20077;-81
2021/12/12 03:24:10;;;;;;;5.57;4.38;;;4.60;99.90;;;;;;5092024;28;20020;-81
2021/12/12 03:26:37;;;;;;;7.88;4.65;;;4.60;99.90;;;;;;5093194;28;20015;-81
2021/12/12 03:29:06;;;;;;;7.20;4.88;;;4.60;99.90;;;;;;5086626;28;20028;-82
2021/12/12 03:31:43;;;;;;;7.05;4.57;;;4.50;99.90;;;;;;5092782;28;20028;-81
2021/12/12 03:34:16;;;;;;;8.75;4.93;;;4.60;99.90;;;;;;5107874;28;20050;-82
2021/12/12 03:36:42;;;;;;;;;;;4.60;99.90;;;;;;5080029;28;20028;-80
2021/12/12 03:39:13;;;;;;;5.78;4.07;;;4.60;99.90;;;;;;5090802;28;19935;-81
2021/12/12 03:41:40;;;;;;;5.10;4.22;;;4.60;99.90;;;;;;5091601;28;20039;-80
2021/12/12 03:44:11;;;;;;;5.30;3.60;;;4.70;99.90;;;;;;5091006;28;20486;-81
2021/12/12 03:46:38;;;;;;;5.18;3.88;;;4.70;99.90;;;;;;5090241;28;20028;-81
2021/12/12 03:49:06;;;;;;;6.03;4.35;;;4.70;99.90;;;;;;5091858;28;20504;-80
2021/12/12 03:51:34;;;;;;;5.13;3.92;;;4.70;99.90;;;;;;5090232;28;20024;-81
2021/12/12 03:54:01;;;;;;;8.35;4.40;;;4.60;99.90;;;;;;5092581;28;20097;-81
2021/12/12 03:56:27;;;;;;;6.03;4.25;;;4.60;99.90;;;;;;5091762;28;20027;-80
2021/12/12 03:58:54;;;;;;;5.65;3.75;;;4.60;99.90;;;;;;5092688;28;20528;-81
2021/12/12 04:01:32;;;;;;;5.43;3.70;;;4.60;99.90;;;;;;5092195;28;20150;-81
2021/12/12 04:04:04;;;;;;;5.68;3.88;;;4.50;99.90;;;;;;5082314;28;20083;-80
2021/12/12 04:06:30;;;;;;;4.82;3.58;;;4.50;99.90;;;;;;5090636;28;20035;-81
2021/12/12 04:08:56;;;;;;;5.45;3.90;;;4.40;99.90;;;;;;5091982;28;20032;-81
2021/12/12 04:11:30;;;;;;;6.97;4.47;;;4.40;99.90;;;;;;5091165;28;20054;-82
2021/12/12 04:13:58;;;;;;;5.63;3.95;;;4.30;99.90;;;;;;5090435;28;20035;-81
2021/12/12 04:16:26;;;;;;;5.30;4.05;;;4.30;99.90;;;;;;5088929;28;20494;-80
2021/12/12 04:18:52;;;;;;;6.75;4.45;;;4.20;99.90;;;;;;5090031;28;20531;-80
2021/12/12 04:21:21;;;;;;;6.18;3.90;;;4.10;99.90;;;;;;5100791;28;20024;-80
2021/12/12 04:23:47;;;;;;;6.05;3.53;;;4.00;99.90;;;;;;5090962;28;20064;-80
2021/12/12 04:26:18;;;;;;;7.50;3.97;;;3.90;99.90;;;;;;5092038;28;20024;-80
2021/12/12 04:28:44;;;;;;;4.72;3.28;;;4.00;99.90;;;;;;5092361;28;20487;-80
2021/12/12 04:31:10;;;;;;;5.97;3.85;;;4.10;99.90;;;;;;5090767;28;20471;-81
2021/12/12 04:33:36;;;;;;;5.15;3.70;;;4.10;99.90;;;;;;5090320;28;20077;-82
2021/12/12 04:36:04;;;;;;;5.18;3.22;;;4.10;99.90;;;;;;5083329;28;20025;-80
2021/12/12 04:38:30;;;;;;;4.15;3.00;;;4.10;99.90;;;;;;5087067;28;20024;-81
2021/12/12 04:40:55;;;;;;;4.68;3.30;;;4.00;99.90;;;;;;5089547;28;20044;-80
2021/12/12 04:43:21;;;;;;;5.45;3.53;;;4.00;99.90;;;;;;5093459;28;20526;-80
2021/12/12 04:46:02;;;;;;;6.03;3.78;;;3.90;99.90;;;;;;5091208;28;20107;-80
2021/12/12 04:51:50;;;;;;;5.35;3.83;;;3.60;99.90;;;;;;5087250;28;20043;-81
2021/12/12 04:54:33;;;;;;;4.45;3.50;;;3.40;99.90;;;;;;5086729;28;20043;-80
2021/12/12 04:57:10;;;;;;;5.85;3.85;;;3.20;99.90;;;;;;5078561;28;20552;-81
2021/12/12 04:59:48;;;;;;;4.43;3.30;;;3.20;99.90;;;;;;5085055;28;20089;-81
2021/12/12 05:02:37;;;;;;;5.95;4.10;;;3.10;99.90;;;;;;5080997;28;20085;-80
2021/12/12 05:05:17;;;;;;;5.30;3.50;;;3.00;99.90;;;;;;5083360;28;20406;-80
2021/12/12 05:07:51;;;;;;;6.03;3.72;;;3.10;99.90;;;;;;5089100;28;20020;-79
2021/12/12 05:10:41;;;;;;;8.13;4.10;;;3.20;99.90;;;;;;5086156;28;20028;-80
2021/12/12 05:13:26;;;;;;;7.95;4.18;;;3.20;99.90;;;;;;5091880;28;20078;-80
2021/12/12 05:16:05;;;;;;;6.18;4.22;;;3.20;99.90;;;;;;5091445;28;20489;-81
2021/12/12 05:18:36;;;;;;;6.57;4.28;;;3.10;99.90;;;;;;5088027;28;20036;-81
2021/12/12 05:21:11;;;;;;;8.25;4.47;;;3.00;99.90;;;;;;5087647;28;20592;-80
2021/12/12 05:23:44;;;;;;;8.90;4.60;;;3.00;99.90;;;;;;5091717;28;20510;-81
2021/12/12 05:26:12;;;;;;;;;;;2.90;99.90;;;;;;5087323;28;20032;-81
2021/12/12 05:28:43;;;;;;;4.50;3.63;;;2.80;99.90;;;;;;5086151;28;19914;-80
2021/12/12 05:31:10;;;;;;;7.05;3.97;;;2.80;99.90;;;;;;5089127;28;20027;-80
2021/12/12 05:33:37;;;;;;;6.25;3.90;;;2.80;99.90;;;;;;5090169;28;20035;-80
2021/12/12 05:36:11;;;;;;;7.07;4.00;;;2.70;99.90;;;;;;5090701;28;20085;-81
2021/12/12 05:38:38;;;;;;;5.55;3.67;;;2.70;99.90;;;;;;5088646;28;20364;-80
2021/12/12 05:41:05;;;;;;;5.72;4.20;;;2.80;99.90;;;;;;5085920;28;20059;-80
2021/12/12 05:43:31;;;;;;;6.15;4.20;;;2.80;99.90;;;;;;5081634;28;20032;-80
2021/12/12 05:45:58;;;;;;;6.88;4.90;;;2.80;99.90;;;;;;5079290;28;20028;-80
2021/12/12 05:48:24;;;;;;;8.95;4.90;;;2.90;99.90;;;;;;5090345;28;20032;-80
2021/12/12 05:50:51;;;;;;;10.73;5.20;;;2.90;99.90;;;;;;5086037;28;20055;-80
2021/12/12 05:53:17;;;;;;;5.53;4.53;;;2.90;99.90;;;;;;5090866;28;20132;-80
2021/12/12 05:55:45;;;;;;;7.30;4.47;;;3.00;99.90;;;;;;5089118;28;20468;-80
2021/12/12 05:58:12;;;;;;;5.40;4.18;;;3.00;99.90;;;;;;5081190;28;20032;-81
2021/12/12 06:00:43;;;;;;;5.47;4.15;;;3.10;99.90;;;;;;5080885;28;20047;-80
2021/12/12 06:03:11;;;;;;;5.43;4.15;;;3.40;99.90;;;;;;5090679;28;20047;-80
2021/12/12 06:05:38;;;;;;;5.15;3.97;;;3.50;99.90;;;;;;5087514;28;20046;-80
2021/12/12 06:08:07;;;;;;;7.00;4.82;;;3.70;99.90;;;;;;5104138;28;20041;-81
2021/12/12 06:10:36;;;;;;;6.57;4.43;;;3.90;99.90;;;;;;5090575;28;20028;-80
2021/12/12 06:13:04;;;;;;;6.05;4.38;;;4.10;99.90;;;;;;5090850;28;20040;-80
2021/12/12 06:15:31;;;;;;;9.13;4.65;;;3.90;99.90;;;;;;5090368;28;20028;-80
2021/12/12 06:17:59;;;;;;;8.75;4.97;;;3.90;99.90;;;;;;5085841;28;20471;-80
2021/12/12 06:20:27;;;;;;;7.45;5.03;;;3.80;99.90;;;;;;5088386;28;20409;-80
2021/12/12 06:22:55;;;;;;;7.03;4.75;;;3.80;99.90;;;;;;5093272;28;20024;-80
2021/12/12 06:25:21;;;;;;;5.97;4.00;;;3.80;99.90;;;;;;5093187;28;20442;-80
2021/12/12 06:27:46;;;;;;;5.53;3.90;;;3.70;99.90;;;;;;5089220;28;20048;-80
2021/12/12 06:30:16;;;;;;;6.07;3.95;;;3.60;99.90;;;;;;5092038;28;20028;-81
2021/12/12 06:32:44;;;;;;;5.20;3.70;;;3.50;99.90;;;;;;5092953;28;20433;-81
2021/12/12 06:35:11;;;;;;;5.85;3.60;;;3.50;99.90;;;;;;5090240;28;20028;-81
2021/12/12 06:37:37;;;;;;;5.10;3.83;;;3.50;99.90;;;;;;5093384;28;20016;-81
2021/12/12 06:40:06;;;;;;;5.93;3.72;;;3.40;99.90;;;;;;5094079;28;20036;-81
2021/12/12 06:42:33;;;;;;;5.63;3.80;;;3.40;99.90;;;;;;5092171;28;20028;-80
2021/12/12 06:44:58;;;;;;;6.65;3.47;;;3.30;99.90;;;;;;5092165;28;20533;-81
2021/12/12 06:47:24;;;;;;;8.93;3.65;;;3.20;99.90;;;;;;5094028;28;20024;-81
2021/12/12 06:49:50;;;;;;;7.00;3.72;;;3.10;99.90;;;;;;5093618;28;20028;-81
2021/12/12 06:52:18;;;;;;;7.70;3.50;;;3.10;99.90;;;;;;5094016;28;20035;-81
2021/12/12 06:54:46;;;;;;;5.38;3.60;;;3.10;99.90;;;;;;5088555;28;20027;-80
2021/12/12 06:57:16;;;;;;;5.72;3.80;;;3.00;99.90;;;;;;5092977;28;20051;-80
2021/12/12 06:59:44;;;;;;;5.80;3.83;;;3.10;99.90;;;;;;5093630;28;20035;-81
2021/12/12 07:02:11;;;;;;;5.50;3.92;;;3.00;99.90;;;;;;5093756;28;20020;-81
2021/12/12 07:04:40;;;;;;;4.65;3.13;;;3.00;99.90;;;;;;5093748;28;20016;-80
2021/12/12 07:07:08;;;;;;;4.72;3.55;;;3.00;99.90;;;;;;5092729;28;20145;-80
2021/12/12 07:09:35;;;;;;;5.35;3.67;;;3.00;99.90;;;;;;5093221;28;20024;-81
2021/12/12 07:12:05;;;;;;;5.00;3.72;;;3.10;99.90;;;;;;5093333;28;20482;-80
2021/12/12 07:14:32;;;;;;;8.50;3.53;;;3.10;99.90;;;;;;5091663;28;20547;-80
2021/12/12 07:17:01;;;;;;;5.50;3.72;;;3.20;99.90;;;;;;5092233;28;20056;-80
2021/12/12 07:19:28;;;;;;;7.60;3.78;;;3.30;99.90;;;;;;5091957;28;20031;-80
2021/12/12 07:21:54;;;;;;;6.15;3.72;;;3.40;99.90;;;;;;5091652;28;20024;-79
2021/12/12 07:24:22;;;;;;;4.72;3.03;;;3.40;99.90;;;;;;5091840;28;20039;-81
2021/12/12 07:26:48;;;;;;;4.75;3.22;;;3.50;99.90;;;;;;5092050;28;20546;-81
2021/12/12 07:29:14;;;;;;;3.67;3.13;;;3.50;99.90;;;;;;5091538;28;20126;-81
2021/12/12 07:31:41;;;;;;;4.63;3.17;;;3.70;99.90;;;;;;5091188;28;20074;-81
2021/12/12 07:34:13;;;;;;;4.30;2.83;;;3.80;99.90;;;;;;5092559;28;20020;-80
2021/12/12 07:37:00;;;;;;;3.15;2.65;;;3.90;99.90;;;;;;5090867;28;20028;-80
2021/12/12 07:39:28;;;;;;;3.92;2.25;;;4.00;99.90;;;;;;5088432;28;20023;-80
2021/12/12 07:41:56;;;;;;;3.92;2.28;;;4.20;99.90;;;;;;5094859;28;20063;-80
2021/12/12 07:44:26;;;;;;;2.53;2.25;;;4.60;99.90;;;;;;5093790;28;20024;-80
2021/12/12 07:46:52;;;;;;;2.95;2.10;;;4.70;99.90;;;;;;5095247;28;20020;-79
2021/12/12 07:49:25;;;;;;;3.70;2.85;;;4.90;99.90;;;;;;5088833;28;20078;-80
2021/12/12 07:51:51;;;;;;;;;;;4.90;99.90;;;;;;5079875;28;20040;-81
2021/12/12 07:54:18;;;;;;;4.03;2.90;;;5.00;99.90;;;;;;5090605;28;19959;-82
2021/12/12 07:56:45;;;;;;;3.33;2.80;;;5.00;99.90;;;;;;5088261;28;20038;-82
2021/12/12 07:59:12;;;;;;;3.03;2.58;;;5.00;99.90;;;;;;5081395;28;20518;-81
2021/12/12 08:01:42;;;;;;;6.32;2.60;;;5.00;99.90;;;;;;5090525;28;20027;-81
2021/12/12 08:04:08;;;;;;;6.03;3.72;;;5.00;99.90;;;;;;5091448;28;20051;-80
2021/12/12 08:06:35;;;;;;;3.88;2.60;;;5.10;99.90;;;;;;5088564;28;20533;-81
2021/12/12 08:09:02;;;;;;;4.35;2.70;;;5.20;99.90;;;;;;5089694;28;20494;-80
2021/12/12 08:11:33;;;;;;;3.05;2.28;;;5.40;99.90;;;;;;5089179;28;20051;-80
2021/12/12 08:14:00;;;;;;;2.63;2.00;;;5.60;99.90;;;;;;5087928;28;20069;-81
2021/12/12 08:16:26;;;;;;;2.80;2.33;;;5.80;99.90;;;;;;5084115;28;20502;-83
2021/12/12 08:18:55;;;;;;;4.43;2.75;;;5.90;99.90;;;;;;5086784;28;20060;-80
2021/12/12 08:21:21;;;;;;;3.40;2.75;;;5.90;99.90;;;;;;5087641;28;20029;-83
2021/12/12 08:23:48;;;;;;;3.95;2.95;;;5.80;99.90;;;;;;5091545;28;20020;-84
2021/12/12 08:26:14;;;;;;;5.93;3.40;;;5.80;99.90;;;;;;5088363;28;20542;-86
2021/12/12 08:28:40;;;;;;;3.60;2.70;;;5.90;99.90;;;;;;5091140;28;20111;-81
2021/12/12 08:31:07;;;;;;;3.28;2.10;;;5.90;99.90;;;;;;5089426;28;20032;-80
2021/12/12 08:33:33;;;;;;;2.95;2.13;;;6.10;99.90;;;;;;5080323;28;20142;-82
2021/12/12 08:35:59;;;;;;;2.33;1.95;;;6.40;99.90;;;;;;5085939;28;20538;-84
2021/12/12 08:38:25;;;;;;;2.47;1.70;;;6.60;99.90;;;;;;5090720;28;20119;-85
2021/12/12 08:40:55;;;;;;;2.25;1.85;;;6.80;99.90;;;;;;5090352;28;20426;-84
2021/12/12 08:43:24;;;;;;;4.03;3.17;;;7.00;99.90;;;;;;5090342;28;20134;-89
2021/12/12 08:45:59;;;;;;;5.22;2.58;;;7.20;99.90;;;;;;5088350;28;20028;-79
2021/12/12 08:48:30;;;;;;;4.70;3.15;;;7.30;99.90;;;;;;5087390;28;20081;-87
2021/12/12 08:51:01;;;;;;;9.15;3.10;;;7.10;99.90;;;;;;5093516;28;20054;-84
2021/12/12 08:53:27;;;;;;;5.20;4.15;;;7.10;99.90;;;;;;5090442;28;20085;-83
2021/12/12 08:55:56;;;;;;;7.70;6.05;;;7.10;99.90;;;;;;5089905;28;20027;-86
2021/12/12 08:58:26;;;;;;;2.88;2.50;;;7.20;99.90;;;;;;5091045;28;20056;-84
2021/12/12 09:01:00;;;;;;;5.82;1.88;;;7.40;99.90;;;;;;5086807;28;20069;-86
2021/12/12 09:03:41;;;;;;;3.05;1.92;;;7.40;99.90;;;;;;5093828;28;20541;-87
2021/12/12 09:06:10;;;;;;;4.13;2.45;;;7.40;99.90;;;;;;5093371;28;20371;-86
2021/12/12 09:09:00;;;;;;;3.35;2.13;;;7.50;99.90;;;;;;5091834;28;20016;-86
2021/12/12 09:11:38;;;;;;;4.32;2.13;;;7.40;98.70;;;;;;5084705;28;20035;-87
2021/12/12 09:14:14;;;;;;;5.90;3.20;;;7.40;98.80;;;;;;5091713;28;20036;-85
2021/12/12 09:17:04;;;;;;;3.20;2.40;;;7.40;98.10;;;;;;5090197;28;20036;-85
2021/12/12 09:19:38;;;;;;;3.65;2.40;;;7.40;98.40;;;;;;5076663;28;20089;-84
2021/12/12 09:22:17;;;;;;;5.88;2.70;;;7.40;99.60;;;;;;5090322;28;20028;-85
2021/12/12 09:24:59;;;;;;;3.90;2.60;;;7.40;99.90;;;;;;5087164;28;20025;-89
2021/12/12 09:27:48;;;;;;;3.83;2.65;;;7.40;99.90;;;;;;5088796;28;20020;-85
2021/12/12 09:30:18;;;;;;;3.63;2.60;;;7.40;99.90;;;;;;5095791;28;20024;-87
2021/12/12 09:32:51;;;;;;;4.90;2.35;;;7.40;99.90;;;;;;5088042;28;20482;-82
2021/12/12 09:35:40;;;;;;;3.70;2.95;;;7.40;99.90;;;;;;5104087;27;20161;-84
2021/12/12 09:38:19;;;;;;;3.63;2.60;;;7.30;99.90;;;;;;5084834;28;20047;-86
2021/12/12 09:41:03;;;;;;;4.32;2.80;;;7.40;99.90;;;;;;5090455;28;20047;-83
2021/12/12 09:44:03;;;;;;;4.07;2.95;;;7.30;99.90;;;;;;5092138;28;20119;-86
2021/12/12 09:53:27;;;;;;;6.47;3.25;;;7.30;99.90;;;;;;5085049;28;20078;-85
2021/12/12 09:56:22;;;;;;;7.45;3.25;;;7.30;99.90;;;;;;5090255;28;20488;-84
2021/12/12 09:59:06;;;;;;;5.40;4.47;;;7.40;99.90;;;;;;5092269;28;20028;-84
2021/12/12 10:01:43;;;;;;;7.13;5.40;;;7.50;99.90;;;;;;5092437;28;20394;-84
2021/12/12 10:04:18;;;;;;;4.70;2.88;;;7.60;99.90;;;;;;5110112;28;20026;-84
2021/12/12 10:07:04;;;;;;;3.28;2.60;;;7.70;99.90;;;;;;5089413;28;20024;-83
2021/12/12 10:09:38;;;;;;;4.25;3.00;;;7.80;99.90;;;;;;5089127;28;20028;-86
2021/12/12 10:12:16;;;;;;;4.93;3.53;;;7.90;99.90;;;;;;5090762;28;20024;-83
2021/12/12 10:14:50;;;;;;;2.97;2.53;;;8.00;99.90;;;;;;5090616;28;20512;-84
2021/12/12 10:17:36;;;;;;;7.72;2.63;;;8.10;99.90;;;;;;5090781;28;20514;-83
2021/12/12 10:20:11;;;;;;;4.20;2.50;;;8.10;99.90;;;;;;5090311;28;20020;-83
2021/12/12 10:23:12;;;;;;;3.33;2.85;;;8.20;99.90;;;;;;5092839;28;20027;-79
2021/12/12 10:25:45;;;;;;;28.08;18.92;;;8.20;99.90;;;;;;5081398;28;20017;-79
2021/12/12 10:28:22;;;;;;;;;;;8.20;99.90;;;;;;5084588;28;20027;-77
2021/12/12 10:31:00;;;;;;;8.55;2.78;;;8.30;99.90;;;;;;5090413;28;20429;-79
2021/12/12 10:33:53;;;;;;;6.03;2.70;;;8.40;99.90;;;;;;5096252;28;20091;-82
2021/12/12 10:36:23;;;;;;;3.08;2.58;;;8.40;99.90;;;;;;5089859;28;20364;-80
2021/12/12 10:39:12;;;;;;;3.95;3.35;;;8.40;99.90;;;;;;5092109;28;20375;-79
2021/12/12 10:41:45;;;;;;;5.63;3.20;;;8.50;99.90;;;;;;5082889;28;20592;-80
2021/12/12 10:44:27;;;;;;;3.65;2.75;;;8.50;99.90;;;;;;5089235;28;20024;-80
2021/12/12 10:47:01;;;;;;;3.95;2.67;;;8.50;99.90;;;;;;5088361;28;20058;-79
2021/12/12 10:49:43;;;;;;;3.70;2.60;;;8.60;99.90;;;;;;5088334;28;20027;-79
2021/12/12 10:52:19;;;;;;;2.70;2.35;;;8.50;99.90;;;;;;5087818;28;20035;-78
2021/12/12 10:55:04;;;;;;;2.80;2.50;;;8.50;99.90;;;;;;5089117;28;20107;-81
2021/12/12 10:57:33;;;;;;;3.17;2.67;;;8.50;99.90;;;;;;5096560;28;20027;-82
2021/12/12 11:00:09;;;;;;;2.67;2.30;;;8.50;99.90;;;;;;5089848;28;20031;-83
2021/12/12 11:02:44;;;;;;;3.75;2.78;;;8.50;99.90;;;;;;5084622;28;20024;-81
2021/12/12 11:05:14;;;;;;;3.50;2.67;;;8.50;99.90;;;;;;5089048;28;20058;-82
2021/12/12 11:07:56;;;;;;;4.22;3.58;;;8.60;99.90;;;;;;5089474;28;20260;-82
2021/12/12 11:10:27;;;;;;;4.78;2.70;;;8.70;99.90;;;;;;5082825;28;20024;-82
2021/12/12 11:13:03;;;;;;;3.40;2.65;;;8.80;99.90;;;;;;5087673;28;20098;-79
2021/12/12 11:15:34;;;;;;;3.65;2.75;;;8.90;99.90;;;;;;5093353;28;20469;-80
2021/12/12 11:18:11;;;;;;;5.18;2.70;;;9.00;99.90;;;;;;5093777;28;20481;-80
2021/12/12 11:20:55;;;;;;;3.40;2.92;;;9.00;99.90;;;;;;5092801;28;20099;-81
2021/12/12 11:23:32;;;;;;;4.20;2.42;;;9.00;99.90;;;;;;5089041;28;20032;-81
2021/12/12 11:26:15;;;;;;;7.15;4.95;;;9.10;99.90;;;;;;5092986;28;20497;-80
2021/12/12 11:28:51;;;;;;;8.13;5.28;;;9.20;99.90;;;;;;5092931;28;20055;-80
2021/12/12 11:31:18;;;;;;;5.68;3.90;;;9.20;99.90;;;;;;5091210;28;20016;-79
2021/12/12 11:33:48;;;;;;;35.85;20.15;;;9.20;99.90;;;;;;5093548;28;20024;-80
2021/12/12 11:36:21;;;;;;;5.47;3.92;;;9.20;99.90;;;;;;5092681;28;20523;-79
2021/12/12 11:38:52;;;;;;;6.47;3.67;;;9.00;99.90;;;;;;5092790;28;20024;-80
2021/12/12 11:41:25;;;;;;;68.38;27.67;;;9.00;99.90;;;;;;5092134;28;20048;-79
2021/12/12 11:44:01;;;;;;;6.28;4.97;;;9.10;99.90;;;;;;5091744;28;20028;-81
2021/12/12 11:46:38;;;;;;;4.72;3.40;;;9.10;99.90;;;;;;5089557;28;20024;-80
2021/12/12 11:49:42;;;;;;;3.33;2.90;;;9.10;99.90;;;;;;5118720;27;20334;-81
2021/12/12 11:52:13;;;;;;;4.85;3.13;;;9.10;99.90;;;;;;5083444;28;20051;-79
2021/12/12 11:54:49;;;;;;;4.18;3.25;;;9.20;99.90;;;;;;5092408;28;20017;-80
2021/12/12 11:57:53;;;;;;;22.60;12.65;;;9.20;99.90;;;;;;5093001;28;20490;-81
2021/12/12 12:00:28;;;;;;;5.10;3.35;;;9.30;99.90;;;;;;5079587;28;20112;-80
2021/12/12 12:03:09;;;;;;;5.60;3.60;;;9.70;99.90;;;;;;5086565;28;20054;-81
2021/12/12 12:05:50;;;;;;;8.73;4.18;;;10.00;99.90;;;;;;5081540;28;20039;-80
2021/12/12 12:08:39;;;;;;;6.68;4.75;;;10.40;99.90;;;;;;5112759;27;20394;-80
2021/12/12 12:11:42;;;;;;;6.78;3.00;;;11.50;99.90;;;;;;5090565;28;20091;-79
2021/12/12 12:14:24;;;;;;;2.92;2.22;;;11.90;94.10;;;;;;5092906;28;20039;-79
2021/12/12 12:17:12;;;;;;;2.70;2.50;;;11.00;95.40;;;;;;5091695;28;20035;-79
2021/12/12 12:20:09;;;;;;;4.10;3.30;;;10.80;95.70;;;;;;5090965;28;20091;-80
2021/12/12 12:23:16;;;;;;;4.03;3.10;;;11.20;94.80;;;;;;5090230;28;20023;-80
2021/12/12 12:28:43;;;;;;;3.70;3.30;;;14.50;88.80;;;;;;5094268;28;20178;-78
2021/12/12 12:31:34;;;;;;;4.15;2.92;;;16.60;80.00;;;;;;5089785;28;20116;-81
2021/12/12 12:34:21;;;;;;;3.88;2.80;;;18.10;73.00;;;;;;5098734;28;20077;-83
2021/12/12 12:37:24;;;;;;;13.80;9.60;;;19.30;64.00;;;;;;5096325;28;20024;-85
2021/12/12 12:40:36;;;;;;;4.45;3.70;;;19.80;63.40;;;;;;5090245;28;20055;-80
2021/12/12 12:43:39;;;;;;;4.97;3.03;;;20.10;61.90;;;;;;5092571;28;20326;-82
2021/12/12 12:46:08;;;;;;;;;;;19.50;60.20;;;;;;5090618;28;20030;-81
2021/12/12 12:48:45;;;;;;;5.88;3.30;;;19.40;62.00;;;;;;5090898;28;19981;-81
2021/12/12 12:51:32;;;;;;;6.38;3.00;;;19.40;61.10;;;;;;5091519;28;20454;-82
2021/12/12 12:54:16;;;;;;;4.57;3.53;;;19.40;59.50;;;;;;5090211;28;20084;-83
2021/12/12 12:57:06;;;;;;;7.78;4.40;;;18.80;60.60;;;;;;5090736;28;20366;-81
2021/12/12 12:59:55;;;;;;;6.25;4.25;;;19.00;61.50;;;;;;5091137;28;20020;-84
2021/12/12 13:02:55;;;;;;;4.18;3.45;;;19.60;61.10;;;;;;5084080;28;20479;-83
2021/12/12 13:05:26;;;;;;;22.02;16.52;;;20.30;59.60;;;;;;5080332;28;20016;-84
2021/12/12 13:08:10;;;;;;;4.27;3.40;;;19.90;57.40;;;;;;5082482;28;20044;-84
2021/12/12 13:10:38;;;;;;;4.85;3.55;;;19.00;58.10;;;;;;5080481;28;20032;-82
2021/12/12 13:13:30;;;;;;;21.23;15.63;;;18.60;60.80;;;;;;5081251;28;20108;-81
2021/12/12 13:16:15;;;;;;;5.43;3.95;;;18.50;59.00;;;;;;5088569;28;20020;-79
2021/12/12 13:19:05;;;;;;;13.45;10.77;;;17.60;59.60;;;;;;5088340;28;20042;-79
2021/12/12 13:21:46;;;;;;;22.25;15.73;;;16.40;63.40;;;;;;5111367;27;20569;-81
2021/12/12 13:24:33;;;;;;;7.65;5.68;;;15.40;66.30;;;;;;5089153;28;20284;-82
2021/12/12 13:27:10;;;;;;;8.98;6.60;;;14.60;69.80;;;;;;5088392;28;20024;-82
2021/12/12 13:29:56;;;;;;;4.55;3.75;;;14.70;70.20;;;;;;5088226;28;20055;-80
2021/12/12 13:32:28;;;;;;;6.97;5.43;;;14.50;67.90;;;;;;5086894;28;20024;-81
2021/12/12 13:35:12;;;;;;;4.97;3.85;;;13.90;68.70;;;;;;5086728;28;20367;-81
2021/12/12 13:38:06;;;;;;;4.68;3.67;;;13.90;68.90;;;;;;5087746;28;20031;-79
2021/12/12 13:40:37;;;;;;;5.28;3.65;;;13.60;70.40;;;;;;5071762;28;20048;-81
2021/12/12 13:43:34;;;;;;;4.22;3.83;;;13.30;70.80;;;;;;5088663;28;20177;-79
2021/12/12 13:46:15;;;;;;;5.07;3.90;;;13.10;72.90;;;;;;5088358;28;20035;-82
2021/12/12 13:48:55;;;;;;;7.13;3.83;;;12.80;74.00;;;;;;5086966;28;20474;-80
2021/12/12 13:51:33;;;;;;;7.05;4.03;;;12.80;74.70;;;;;;5084127;28;20028;-81
2021/12/12 13:54:16;;;;;;;4.95;3.95;;;13.50;73.60;;;;;;5080579;28;20129;-80
2021/12/12 13:56:47;;;;;;;;;;;14.10;72.20;;;;;;5088202;28;20058;-79
2021/12/12 13:59:37;;;;;;;9.88;4.20;;;14.30;69.20;;;;;;5088712;28;19918;-80